Martinborough, New Zealand
Current Conditions -  °F | °C
As of 11:30 PM on Sunday 23 Nov 2014 (Local Time) from NZWN Reporting Station
Broken Clouds Broken Clouds  
Wind Chill: 55°   Ceiling: 2100
Heat Index: 55°   Visibility: 6mi
Dew Point: 48°   Wind: 24mph
Humidity: 77%   Direction: 360°N
Pressure: 29.97"   Gusts: NA
Location:  41.22°S, 175.46°E
Report Text: NZWN 231130Z AUTO 36021KT 9999 BKN021/// 13/09 Q1015 NOSIG
Loading
Personal Weather Stations






























Interactive Weather Map New forecast layout! Learn more

10-Day Weather Forecast

Advertisements
Track Severe Weather on mobile